sensor_id;sensor_type;location;lat;lon;timestamp;P1;durP1;ratioP1;P2;durP2;ratioP2
18752;SDS011;9505;50.882;5.350;2023-04-03T00:01:02;43.58;;;9.60;;
18752;SDS011;9505;50.882;5.350;2023-04-03T00:03:29;47.72;;;10.20;;
18752;SDS011;9505;50.882;5.350;2023-04-03T00:05:55;43.70;;;9.48;;
18752;SDS011;9505;50.882;5.350;2023-04-03T00:08:20;45.00;;;9.70;;
18752;SDS011;9505;50.882;5.350;2023-04-03T00:10:46;41.85;;;8.45;;
18752;SDS011;9505;50.882;5.350;2023-04-03T00:13:12;46.47;;;9.27;;
18752;SDS011;9505;50.882;5.350;2023-04-03T00:15:38;47.17;;;9.38;;
18752;SDS011;9505;50.882;5.350;2023-04-03T00:18:04;43.95;;;8.88;;
18752;SDS011;9505;50.882;5.350;2023-04-03T00:20:30;41.03;;;8.82;;
18752;SDS011;9505;50.882;5.350;2023-04-03T00:22:57;39.10;;;8.50;;
18752;SDS011;9505;50.882;5.350;2023-04-03T00:25:23;49.00;;;9.60;;
18752;SDS011;9505;50.882;5.350;2023-04-03T00:27:48;38.40;;;8.43;;
18752;SDS011;9505;50.882;5.350;2023-04-03T00:30:15;41.45;;;8.80;;
18752;SDS011;9505;50.882;5.350;2023-04-03T00:32:42;40.35;;;8.95;;
18752;SDS011;9505;50.882;5.350;2023-04-03T00:35:08;44.70;;;8.82;;
18752;SDS011;9505;50.882;5.350;2023-04-03T00:37:35;44.75;;;8.63;;
18752;SDS011;9505;50.882;5.350;2023-04-03T00:40:00;43.35;;;9.30;;
18752;SDS011;9505;50.882;5.350;2023-04-03T00:42:27;49.08;;;9.57;;
18752;SDS011;9505;50.882;5.350;2023-04-03T00:47:18;42.25;;;9.05;;
18752;SDS011;9505;50.882;5.350;2023-04-03T00:49:44;42.47;;;9.75;;
18752;SDS011;9505;50.882;5.350;2023-04-03T00:52:14;44.85;;;9.45;;
18752;SDS011;9505;50.882;5.350;2023-04-03T00:54:43;35.65;;;8.57;;
18752;SDS011;9505;50.882;5.350;2023-04-03T00:57:11;49.70;;;9.15;;
18752;SDS011;9505;50.882;5.350;2023-04-03T00:59:42;47.28;;;9.00;;
18752;SDS011;9505;50.882;5.350;2023-04-03T01:02:11;44.15;;;9.07;;
18752;SDS011;9505;50.882;5.350;2023-04-03T01:04:38;45.97;;;9.45;;
18752;SDS011;9505;50.882;5.350;2023-04-03T01:07:16;52.95;;;10.15;;
18752;SDS011;9505;50.882;5.350;2023-04-03T01:09:46;40.92;;;8.90;;
18752;SDS011;9505;50.882;5.350;2023-04-03T01:15:25;40.70;;;9.40;;
18752;SDS011;9505;50.882;5.350;2023-04-03T01:17:46;37.97;;;8.63;;
18752;SDS011;9505;50.882;5.350;2023-04-03T01:23:06;50.03;;;9.07;;
18752;SDS011;9505;50.882;5.350;2023-04-03T01:25:46;44.17;;;9.13;;
18752;SDS011;9505;50.882;5.350;2023-04-03T01:28:18;41.75;;;9.23;;
18752;SDS011;9505;50.882;5.350;2023-04-03T01:33:42;44.65;;;9.00;;
18752;SDS011;9505;50.882;5.350;2023-04-03T01:36:09;47.42;;;10.25;;
18752;SDS011;9505;50.882;5.350;2023-04-03T01:38:38;45.58;;;9.10;;
18752;SDS011;9505;50.882;5.350;2023-04-03T01:41:04;46.75;;;9.07;;
18752;SDS011;9505;50.882;5.350;2023-04-03T01:43:29;51.65;;;10.32;;
18752;SDS011;9505;50.882;5.350;2023-04-03T01:45:55;36.97;;;9.27;;
18752;SDS011;9505;50.882;5.350;2023-04-03T01:48:20;49.75;;;10.70;;
18752;SDS011;9505;50.882;5.350;2023-04-03T01:50:46;46.97;;;11.15;;
18752;SDS011;9505;50.882;5.350;2023-04-03T01:53:12;41.47;;;9.40;;
18752;SDS011;9505;50.882;5.350;2023-04-03T01:55:38;52.83;;;10.40;;
18752;SDS011;9505;50.882;5.350;2023-04-03T01:58:03;46.40;;;10.60;;
18752;SDS011;9505;50.882;5.350;2023-04-03T02:00:29;47.67;;;9.73;;
18752;SDS011;9505;50.882;5.350;2023-04-03T02:02:55;45.92;;;10.02;;
18752;SDS011;9505;50.882;5.350;2023-04-03T02:05:21;45.05;;;10.55;;
18752;SDS011;9505;50.882;5.350;2023-04-03T02:07:48;47.28;;;9.90;;
18752;SDS011;9505;50.882;5.350;2023-04-03T02:10:13;62.10;;;10.57;;
18752;SDS011;9505;50.882;5.350;2023-04-03T02:12:39;59.13;;;10.80;;
18752;SDS011;9505;50.882;5.350;2023-04-03T02:15:05;47.30;;;10.23;;
18752;SDS011;9505;50.882;5.350;2023-04-03T02:17:32;55.07;;;9.60;;
18752;SDS011;9505;50.882;5.350;2023-04-03T02:19:57;45.23;;;9.67;;
18752;SDS011;9505;50.882;5.350;2023-04-03T02:22:23;50.73;;;9.93;;
18752;SDS011;9505;50.882;5.350;2023-04-03T02:24:48;42.47;;;8.77;;
18752;SDS011;9505;50.882;5.350;2023-04-03T02:27:14;57.55;;;10.20;;
18752;SDS011;9505;50.882;5.350;2023-04-03T02:29:40;46.87;;;9.33;;
18752;SDS011;9505;50.882;5.350;2023-04-03T02:32:05;55.93;;;9.40;;
18752;SDS011;9505;50.882;5.350;2023-04-03T02:34:31;50.87;;;9.53;;
18752;SDS011;9505;50.882;5.350;2023-04-03T02:36:57;74.50;;;17.90;;
18752;SDS011;9505;50.882;5.350;2023-04-03T02:39:22;89.47;;;21.47;;
18752;SDS011;9505;50.882;5.350;2023-04-03T02:41:48;50.93;;;10.27;;
18752;SDS011;9505;50.882;5.350;2023-04-03T02:44:13;55.57;;;10.60;;
18752;SDS011;9505;50.882;5.350;2023-04-03T02:46:39;53.50;;;11.13;;
18752;SDS011;9505;50.882;5.350;2023-04-03T02:49:05;50.17;;;10.47;;
18752;SDS011;9505;50.882;5.350;2023-04-03T02:51:31;52.27;;;9.80;;
18752;SDS011;9505;50.882;5.350;2023-04-03T02:53:57;57.90;;;11.13;;
18752;SDS011;9505;50.882;5.350;2023-04-03T02:56:22;49.97;;;10.77;;
18752;SDS011;9505;50.882;5.350;2023-04-03T02:58:48;56.90;;;11.07;;
18752;SDS011;9505;50.882;5.350;2023-04-03T03:01:14;56.28;;;11.65;;
18752;SDS011;9505;50.882;5.350;2023-04-03T03:03:40;56.10;;;10.53;;
18752;SDS011;9505;50.882;5.350;2023-04-03T03:06:13;58.80;;;10.80;;
18752;SDS011;9505;50.882;5.350;2023-04-03T03:08:40;57.43;;;11.10;;
18752;SDS011;9505;50.882;5.350;2023-04-03T03:11:06;57.07;;;10.87;;
18752;SDS011;9505;50.882;5.350;2023-04-03T03:13:33;54.07;;;10.03;;
18752;SDS011;9505;50.882;5.350;2023-04-03T03:15:59;46.13;;;10.77;;
18752;SDS011;9505;50.882;5.350;2023-04-03T03:18:25;53.77;;;10.80;;
18752;SDS011;9505;50.882;5.350;2023-04-03T03:20:51;55.77;;;11.00;;
18752;SDS011;9505;50.882;5.350;2023-04-03T03:23:18;51.67;;;10.53;;
18752;SDS011;9505;50.882;5.350;2023-04-03T03:25:44;68.37;;;11.93;;
18752;SDS011;9505;50.882;5.350;2023-04-03T03:28:09;58.53;;;9.97;;
18752;SDS011;9505;50.882;5.350;2023-04-03T03:30:36;56.93;;;10.27;;
18752;SDS011;9505;50.882;5.350;2023-04-03T03:33:02;45.40;;;8.67;;
18752;SDS011;9505;50.882;5.350;2023-04-03T03:35:27;49.90;;;9.97;;
18752;SDS011;9505;50.882;5.350;2023-04-03T03:37:53;53.40;;;9.73;;
18752;SDS011;9505;50.882;5.350;2023-04-03T03:40:18;58.90;;;10.93;;
18752;SDS011;9505;50.882;5.350;2023-04-03T03:42:44;52.40;;;10.33;;
18752;SDS011;9505;50.882;5.350;2023-04-03T03:45:10;54.53;;;9.87;;
18752;SDS011;9505;50.882;5.350;2023-04-03T03:47:35;60.00;;;10.30;;
18752;SDS011;9505;50.882;5.350;2023-04-03T03:50:01;55.23;;;10.60;;
18752;SDS011;9505;50.882;5.350;2023-04-03T03:52:27;51.63;;;11.20;;
18752;SDS011;9505;50.882;5.350;2023-04-03T03:54:54;64.13;;;13.07;;
18752;SDS011;9505;50.882;5.350;2023-04-03T03:57:20;56.17;;;11.67;;
18752;SDS011;9505;50.882;5.350;2023-04-03T03:59:46;70.63;;;13.30;;
18752;SDS011;9505;50.882;5.350;2023-04-03T04:02:13;51.60;;;11.07;;
18752;SDS011;9505;50.882;5.350;2023-04-03T04:04:39;58.83;;;11.53;;
18752;SDS011;9505;50.882;5.350;2023-04-03T04:07:05;54.30;;;11.30;;
18752;SDS011;9505;50.882;5.350;2023-04-03T04:09:30;57.43;;;11.53;;
18752;SDS011;9505;50.882;5.350;2023-04-03T04:11:56;56.10;;;10.70;;
18752;SDS011;9505;50.882;5.350;2023-04-03T04:14:22;53.50;;;11.50;;
18752;SDS011;9505;50.882;5.350;2023-04-03T04:16:47;67.10;;;12.67;;
18752;SDS011;9505;50.882;5.350;2023-04-03T04:19:13;50.13;;;9.93;;
18752;SDS011;9505;50.882;5.350;2023-04-03T04:21:39;51.13;;;11.07;;
18752;SDS011;9505;50.882;5.350;2023-04-03T04:24:06;56.40;;;11.63;;
18752;SDS011;9505;50.882;5.350;2023-04-03T04:26:32;59.47;;;11.63;;
18752;SDS011;9505;50.882;5.350;2023-04-03T04:28:58;55.10;;;11.27;;
18752;SDS011;9505;50.882;5.350;2023-04-03T04:31:24;57.97;;;10.83;;
18752;SDS011;9505;50.882;5.350;2023-04-03T04:33:49;51.73;;;10.53;;
18752;SDS011;9505;50.882;5.350;2023-04-03T04:36:15;51.20;;;11.53;;
18752;SDS011;9505;50.882;5.350;2023-04-03T04:38:41;54.37;;;11.40;;
18752;SDS011;9505;50.882;5.350;2023-04-03T04:41:06;47.77;;;10.60;;
18752;SDS011;9505;50.882;5.350;2023-04-03T04:43:32;60.40;;;12.33;;
18752;SDS011;9505;50.882;5.350;2023-04-03T04:46:16;61.23;;;12.80;;
18752;SDS011;9505;50.882;5.350;2023-04-03T04:48:42;60.17;;;11.73;;
18752;SDS011;9505;50.882;5.350;2023-04-03T04:51:08;60.73;;;11.83;;
18752;SDS011;9505;50.882;5.350;2023-04-03T04:53:34;61.23;;;12.43;;
18752;SDS011;9505;50.882;5.350;2023-04-03T04:56:00;62.10;;;11.60;;
18752;SDS011;9505;50.882;5.350;2023-04-03T04:58:25;47.63;;;11.37;;
18752;SDS011;9505;50.882;5.350;2023-04-03T05:00:58;47.37;;;10.53;;
18752;SDS011;9505;50.882;5.350;2023-04-03T05:03:26;48.23;;;11.17;;
18752;SDS011;9505;50.882;5.350;2023-04-03T05:05:52;56.07;;;11.53;;
18752;SDS011;9505;50.882;5.350;2023-04-03T05:08:17;47.40;;;10.13;;
18752;SDS011;9505;50.882;5.350;2023-04-03T05:10:44;58.47;;;11.93;;
18752;SDS011;9505;50.882;5.350;2023-04-03T05:13:10;56.00;;;11.83;;
18752;SDS011;9505;50.882;5.350;2023-04-03T05:15:36;53.03;;;11.60;;
18752;SDS011;9505;50.882;5.350;2023-04-03T05:18:01;62.60;;;12.17;;
18752;SDS011;9505;50.882;5.350;2023-04-03T05:20:27;57.43;;;12.20;;
18752;SDS011;9505;50.882;5.350;2023-04-03T05:22:52;53.43;;;12.63;;
18752;SDS011;9505;50.882;5.350;2023-04-03T05:25:18;62.67;;;13.93;;
18752;SDS011;9505;50.882;5.350;2023-04-03T05:27:43;45.00;;;11.07;;
18752;SDS011;9505;50.882;5.350;2023-04-03T05:30:09;49.63;;;12.47;;
18752;SDS011;9505;50.882;5.350;2023-04-03T05:32:35;53.00;;;13.13;;
18752;SDS011;9505;50.882;5.350;2023-04-03T05:35:01;50.53;;;12.17;;
18752;SDS011;9505;50.882;5.350;2023-04-03T05:37:26;58.53;;;13.57;;
18752;SDS011;9505;50.882;5.350;2023-04-03T05:39:52;53.70;;;13.50;;
18752;SDS011;9505;50.882;5.350;2023-04-03T05:42:17;54.07;;;13.00;;
18752;SDS011;9505;50.882;5.350;2023-04-03T05:44:43;53.43;;;13.57;;
18752;SDS011;9505;50.882;5.350;2023-04-03T05:47:11;59.60;;;14.30;;
18752;SDS011;9505;50.882;5.350;2023-04-03T05:49:36;56.15;;;13.93;;
18752;SDS011;9505;50.882;5.350;2023-04-03T05:52:05;56.63;;;14.60;;
18752;SDS011;9505;50.882;5.350;2023-04-03T05:54:35;55.80;;;15.50;;
18752;SDS011;9505;50.882;5.350;2023-04-03T05:57:01;65.65;;;15.93;;
18752;SDS011;9505;50.882;5.350;2023-04-03T05:59:26;65.15;;;16.52;;
18752;SDS011;9505;50.882;5.350;2023-04-03T06:01:52;53.03;;;15.35;;
18752;SDS011;9505;50.882;5.350;2023-04-03T06:04:17;67.28;;;19.27;;
18752;SDS011;9505;50.882;5.350;2023-04-03T06:06:44;55.15;;;17.40;;
18752;SDS011;9505;50.882;5.350;2023-04-03T06:09:23;54.35;;;16.33;;
18752;SDS011;9505;50.882;5.350;2023-04-03T06:11:50;44.35;;;14.73;;
18752;SDS011;9505;50.882;5.350;2023-04-03T06:14:16;50.28;;;15.48;;
18752;SDS011;9505;50.882;5.350;2023-04-03T06:16:42;45.28;;;14.32;;
18752;SDS011;9505;50.882;5.350;2023-04-03T06:19:10;49.15;;;15.52;;
18752;SDS011;9505;50.882;5.350;2023-04-03T06:21:37;45.03;;;14.65;;
18752;SDS011;9505;50.882;5.350;2023-04-03T06:24:03;41.35;;;13.50;;
18752;SDS011;9505;50.882;5.350;2023-04-03T06:26:30;49.60;;;13.80;;
18752;SDS011;9505;50.882;5.350;2023-04-03T06:28:56;38.83;;;12.27;;
18752;SDS011;9505;50.882;5.350;2023-04-03T06:31:22;41.05;;;11.75;;
18752;SDS011;9505;50.882;5.350;2023-04-03T06:33:48;24.70;;;9.40;;
18752;SDS011;9505;50.882;5.350;2023-04-03T06:36:13;32.30;;;10.05;;
18752;SDS011;9505;50.882;5.350;2023-04-03T06:38:39;31.40;;;8.98;;
18752;SDS011;9505;50.882;5.350;2023-04-03T06:41:04;31.10;;;9.32;;
18752;SDS011;9505;50.882;5.350;2023-04-03T06:43:30;21.00;;;7.65;;
18752;SDS011;9505;50.882;5.350;2023-04-03T06:45:57;27.95;;;8.20;;
18752;SDS011;9505;50.882;5.350;2023-04-03T06:48:22;41.33;;;9.05;;
18752;SDS011;9505;50.882;5.350;2023-04-03T06:50:48;34.90;;;8.07;;
18752;SDS011;9505;50.882;5.350;2023-04-03T06:53:14;43.95;;;8.63;;
18752;SDS011;9505;50.882;5.350;2023-04-03T06:55:39;32.88;;;7.80;;
18752;SDS011;9505;50.882;5.350;2023-04-03T06:58:06;32.97;;;7.53;;
18752;SDS011;9505;50.882;5.350;2023-04-03T07:00:32;30.63;;;7.28;;
18752;SDS011;9505;50.882;5.350;2023-04-03T07:02:58;22.15;;;6.57;;
18752;SDS011;9505;50.882;5.350;2023-04-03T07:05:24;35.88;;;7.30;;
18752;SDS011;9505;50.882;5.350;2023-04-03T07:07:52;36.60;;;7.32;;
18752;SDS011;9505;50.882;5.350;2023-04-03T07:10:18;79.78;;;12.18;;
18752;SDS011;9505;50.882;5.350;2023-04-03T07:12:44;29.45;;;6.40;;
18752;SDS011;9505;50.882;5.350;2023-04-03T07:15:10;30.40;;;6.13;;
18752;SDS011;9505;50.882;5.350;2023-04-03T07:17:37;36.03;;;7.20;;
18752;SDS011;9505;50.882;5.350;2023-04-03T07:20:03;32.67;;;6.75;;
18752;SDS011;9505;50.882;5.350;2023-04-03T07:22:29;39.53;;;7.03;;
18752;SDS011;9505;50.882;5.350;2023-04-03T07:24:55;17.98;;;4.75;;
18752;SDS011;9505;50.882;5.350;2023-04-03T07:27:21;38.08;;;6.75;;
18752;SDS011;9505;50.882;5.350;2023-04-03T07:29:47;40.45;;;6.53;;
18752;SDS011;9505;50.882;5.350;2023-04-03T07:32:13;31.25;;;5.60;;
18752;SDS011;9505;50.882;5.350;2023-04-03T07:34:39;46.45;;;6.78;;
18752;SDS011;9505;50.882;5.350;2023-04-03T07:37:05;25.58;;;4.82;;
18752;SDS011;9505;50.882;5.350;2023-04-03T07:39:31;41.88;;;6.32;;
18752;SDS011;9505;50.882;5.350;2023-04-03T07:41:57;33.45;;;6.22;;
18752;SDS011;9505;50.882;5.350;2023-04-03T07:44:23;39.80;;;6.15;;
18752;SDS011;9505;50.882;5.350;2023-04-03T07:46:49;35.22;;;5.45;;
18752;SDS011;9505;50.882;5.350;2023-04-03T07:49:15;47.50;;;6.22;;
18752;SDS011;9505;50.882;5.350;2023-04-03T07:51:43;22.30;;;4.30;;
18752;SDS011;9505;50.882;5.350;2023-04-03T07:54:09;33.47;;;5.55;;
18752;SDS011;9505;50.882;5.350;2023-04-03T07:56:35;49.38;;;6.82;;
18752;SDS011;9505;50.882;5.350;2023-04-03T07:59:00;36.28;;;6.10;;
18752;SDS011;9505;50.882;5.350;2023-04-03T08:01:26;44.38;;;6.18;;
18752;SDS011;9505;50.882;5.350;2023-04-03T08:03:52;19.05;;;4.05;;
18752;SDS011;9505;50.882;5.350;2023-04-03T08:06:18;40.22;;;5.75;;
18752;SDS011;9505;50.882;5.350;2023-04-03T08:08:43;23.42;;;4.68;;
18752;SDS011;9505;50.882;5.350;2023-04-03T08:11:09;25.50;;;3.97;;
18752;SDS011;9505;50.882;5.350;2023-04-03T08:13:36;38.80;;;5.35;;
18752;SDS011;9505;50.882;5.350;2023-04-03T08:16:11;39.00;;;5.18;;
18752;SDS011;9505;50.882;5.350;2023-04-03T08:18:41;44.28;;;5.53;;
18752;SDS011;9505;50.882;5.350;2023-04-03T08:21:08;25.30;;;3.40;;
18752;SDS011;9505;50.882;5.350;2023-04-03T08:23:35;38.50;;;4.72;;
18752;SDS011;9505;50.882;5.350;2023-04-03T08:26:10;15.98;;;2.80;;
18752;SDS011;9505;50.882;5.350;2023-04-03T08:28:38;27.73;;;4.47;;
18752;SDS011;9505;50.882;5.350;2023-04-03T08:31:05;30.95;;;4.57;;
18752;SDS011;9505;50.882;5.350;2023-04-03T08:33:33;37.42;;;4.93;;
18752;SDS011;9505;50.882;5.350;2023-04-03T08:36:00;24.85;;;3.95;;
18752;SDS011;9505;50.882;5.350;2023-04-03T08:38:26;22.05;;;3.50;;
18752;SDS011;9505;50.882;5.350;2023-04-03T08:41:02;37.70;;;4.68;;
18752;SDS011;9505;50.882;5.350;2023-04-03T08:46:18;72.60;;;7.88;;
18752;SDS011;9505;50.882;5.350;2023-04-03T08:48:47;22.52;;;3.55;;
18752;SDS011;9505;50.882;5.350;2023-04-03T08:51:16;42.10;;;5.20;;
18752;SDS011;9505;50.882;5.350;2023-04-03T08:54:04;18.90;;;3.17;;
18752;SDS011;9505;50.882;5.350;2023-04-03T08:56:37;40.33;;;5.18;;
18752;SDS011;9505;50.882;5.350;2023-04-03T08:59:05;20.55;;;3.30;;
18752;SDS011;9505;50.882;5.350;2023-04-03T09:01:40;29.23;;;4.03;;
18752;SDS011;9505;50.882;5.350;2023-04-03T09:04:13;26.13;;;3.72;;
18752;SDS011;9505;50.882;5.350;2023-04-03T09:06:46;18.92;;;3.08;;
18752;SDS011;9505;50.882;5.350;2023-04-03T09:09:28;32.85;;;4.13;;
18752;SDS011;9505;50.882;5.350;2023-04-03T09:12:17;25.60;;;3.80;;
18752;SDS011;9505;50.882;5.350;2023-04-03T09:15:15;37.40;;;4.70;;
18752;SDS011;9505;50.882;5.350;2023-04-03T09:23:09;15.05;;;2.33;;
18752;SDS011;9505;50.882;5.350;2023-04-03T09:26:01;37.95;;;4.53;;
18752;SDS011;9505;50.882;5.350;2023-04-03T09:28:35;17.00;;;2.38;;
18752;SDS011;9505;50.882;5.350;2023-04-03T09:31:14;26.75;;;3.53;;
18752;SDS011;9505;50.882;5.350;2023-04-03T09:33:45;23.70;;;3.42;;
18752;SDS011;9505;50.882;5.350;2023-04-03T09:36:12;40.22;;;4.82;;
18752;SDS011;9505;50.882;5.350;2023-04-03T09:38:38;33.50;;;4.35;;
18752;SDS011;9505;50.882;5.350;2023-04-03T09:41:10;39.55;;;4.80;;
18752;SDS011;9505;50.882;5.350;2023-04-03T09:43:40;29.42;;;3.85;;
18752;SDS011;9505;50.882;5.350;2023-04-03T09:46:22;45.20;;;4.75;;
18752;SDS011;9505;50.882;5.350;2023-04-03T09:48:57;18.40;;;2.60;;
18752;SDS011;9505;50.882;5.350;2023-04-03T09:51:27;43.60;;;4.85;;
18752;SDS011;9505;50.882;5.350;2023-04-03T09:53:55;25.70;;;3.22;;
18752;SDS011;9505;50.882;5.350;2023-04-03T09:56:27;46.30;;;5.47;;
18752;SDS011;9505;50.882;5.350;2023-04-03T10:06:36;35.20;;;4.13;;
18752;SDS011;9505;50.882;5.350;2023-04-03T10:09:18;32.08;;;3.80;;
18752;SDS011;9505;50.882;5.350;2023-04-03T10:14:35;15.15;;;1.60;;
18752;SDS011;9505;50.882;5.350;2023-04-03T10:19:47;20.20;;;2.45;;
18752;SDS011;9505;50.882;5.350;2023-04-03T10:22:18;53.35;;;5.70;;
18752;SDS011;9505;50.882;5.350;2023-04-03T10:25:22;33.70;;;3.58;;
18752;SDS011;9505;50.882;5.350;2023-04-03T10:31:28;31.42;;;3.65;;
18752;SDS011;9505;50.882;5.350;2023-04-03T10:34:29;25.42;;;2.95;;
18752;SDS011;9505;50.882;5.350;2023-04-03T10:45:22;30.55;;;3.10;;
18752;SDS011;9505;50.882;5.350;2023-04-03T10:50:38;34.58;;;3.90;;
18752;SDS011;9505;50.882;5.350;2023-04-03T10:53:11;21.13;;;2.40;;
18752;SDS011;9505;50.882;5.350;2023-04-03T10:55:43;17.73;;;2.17;;
18752;SDS011;9505;50.882;5.350;2023-04-03T11:00:53;13.00;;;1.35;;
18752;SDS011;9505;50.882;5.350;2023-04-03T11:03:29;19.48;;;2.30;;
18752;SDS011;9505;50.882;5.350;2023-04-03T11:05:57;37.40;;;3.95;;
18752;SDS011;9505;50.882;5.350;2023-04-03T11:08:30;44.65;;;4.85;;
18752;SDS011;9505;50.882;5.350;2023-04-03T11:11:06;20.63;;;2.13;;
18752;SDS011;9505;50.882;5.350;2023-04-03T11:16:19;37.80;;;4.07;;
18752;SDS011;9505;50.882;5.350;2023-04-03T11:18:51;17.55;;;1.95;;
18752;SDS011;9505;50.882;5.350;2023-04-03T11:21:22;22.50;;;2.70;;
18752;SDS011;9505;50.882;5.350;2023-04-03T11:24:05;41.33;;;4.25;;
18752;SDS011;9505;50.882;5.350;2023-04-03T11:26:38;31.65;;;3.60;;
18752;SDS011;9505;50.882;5.350;2023-04-03T11:29:12;28.52;;;3.00;;
18752;SDS011;9505;50.882;5.350;2023-04-03T11:37:04;23.35;;;2.72;;
18752;SDS011;9505;50.882;5.350;2023-04-03T11:40:36;31.58;;;3.38;;
18752;SDS011;9505;50.882;5.350;2023-04-03T11:42:49;35.42;;;4.07;;
18752;SDS011;9505;50.882;5.350;2023-04-03T11:47:50;35.85;;;3.92;;
18752;SDS011;9505;50.882;5.350;2023-04-03T12:16:25;83.82;;;8.15;;
18752;SDS011;9505;50.882;5.350;2023-04-03T12:18:58;34.10;;;4.03;;
18752;SDS011;9505;50.882;5.350;2023-04-03T12:24:03;26.65;;;3.20;;
18752;SDS011;9505;50.882;5.350;2023-04-03T12:26:31;54.72;;;5.68;;
18752;SDS011;9505;50.882;5.350;2023-04-03T12:29:17;29.27;;;3.53;;
18752;SDS011;9505;50.882;5.350;2023-04-03T12:31:54;33.67;;;4.18;;
18752;SDS011;9505;50.882;5.350;2023-04-03T12:35:08;30.48;;;3.55;;
18752;SDS011;9505;50.882;5.350;2023-04-03T12:45:24;69.00;;;7.40;;
18752;SDS011;9505;50.882;5.350;2023-04-03T12:47:54;73.57;;;7.70;;
18752;SDS011;9505;50.882;5.350;2023-04-03T12:55:31;55.25;;;6.22;;
18752;SDS011;9505;50.882;5.350;2023-04-03T12:57:56;24.33;;;3.22;;
18752;SDS011;9505;50.882;5.350;2023-04-03T13:02:58;34.47;;;4.45;;
18752;SDS011;9505;50.882;5.350;2023-04-03T13:05:24;50.15;;;5.53;;
18752;SDS011;9505;50.882;5.350;2023-04-03T13:08:01;55.08;;;6.20;;
18752;SDS011;9505;50.882;5.350;2023-04-03T13:10:29;62.15;;;6.88;;
18752;SDS011;9505;50.882;5.350;2023-04-03T13:12:57;62.65;;;7.22;;
18752;SDS011;9505;50.882;5.350;2023-04-03T13:15:43;49.67;;;5.72;;
18752;SDS011;9505;50.882;5.350;2023-04-03T13:18:30;59.90;;;6.15;;
18752;SDS011;9505;50.882;5.350;2023-04-03T13:21:04;43.05;;;4.90;;
18752;SDS011;9505;50.882;5.350;2023-04-03T13:23:43;66.25;;;7.43;;
18752;SDS011;9505;50.882;5.350;2023-04-03T13:26:12;73.07;;;8.02;;
18752;SDS011;9505;50.882;5.350;2023-04-03T13:28:41;43.92;;;5.20;;
18752;SDS011;9505;50.882;5.350;2023-04-03T13:31:16;44.78;;;5.10;;
18752;SDS011;9505;50.882;5.350;2023-04-03T13:36:21;26.90;;;3.05;;
18752;SDS011;9505;50.882;5.350;2023-04-03T13:41:36;44.83;;;5.10;;
18752;SDS011;9505;50.882;5.350;2023-04-03T13:46:51;70.35;;;7.28;;
18752;SDS011;9505;50.882;5.350;2023-04-03T13:49:36;58.60;;;6.45;;
18752;SDS011;9505;50.882;5.350;2023-04-03T13:52:21;19.25;;;2.55;;
18752;SDS011;9505;50.882;5.350;2023-04-03T14:05:51;61.22;;;6.15;;
18752;SDS011;9505;50.882;5.350;2023-04-03T14:08:18;47.45;;;5.32;;
18752;SDS011;9505;50.882;5.350;2023-04-03T14:10:44;59.65;;;6.43;;
18752;SDS011;9505;50.882;5.350;2023-04-03T14:13:15;29.15;;;3.40;;
18752;SDS011;9505;50.882;5.350;2023-04-03T14:15:43;30.48;;;3.58;;
18752;SDS011;9505;50.882;5.350;2023-04-03T14:18:12;46.47;;;5.03;;
18752;SDS011;9505;50.882;5.350;2023-04-03T14:20:39;66.38;;;7.22;;
18752;SDS011;9505;50.882;5.350;2023-04-03T14:23:05;50.42;;;5.57;;
18752;SDS011;9505;50.882;5.350;2023-04-03T14:25:31;61.97;;;6.80;;
18752;SDS011;9505;50.882;5.350;2023-04-03T14:27:57;23.60;;;3.28;;
18752;SDS011;9505;50.882;5.350;2023-04-03T14:30:32;29.17;;;3.70;;
18752;SDS011;9505;50.882;5.350;2023-04-03T14:32:58;30.00;;;3.45;;
18752;SDS011;9505;50.882;5.350;2023-04-03T14:35:24;69.25;;;7.50;;
18752;SDS011;9505;50.882;5.350;2023-04-03T14:37:50;62.40;;;7.18;;
18752;SDS011;9505;50.882;5.350;2023-04-03T14:40:19;55.10;;;6.03;;
18752;SDS011;9505;50.882;5.350;2023-04-03T14:42:48;31.67;;;3.97;;
18752;SDS011;9505;50.882;5.350;2023-04-03T14:45:13;25.15;;;2.97;;
18752;SDS011;9505;50.882;5.350;2023-04-03T14:47:50;48.10;;;5.25;;
18752;SDS011;9505;50.882;5.350;2023-04-03T14:50:19;25.30;;;3.33;;
18752;SDS011;9505;50.882;5.350;2023-04-03T14:52:49;46.90;;;5.82;;
18752;SDS011;9505;50.882;5.350;2023-04-03T14:55:17;53.30;;;5.88;;
18752;SDS011;9505;50.882;5.350;2023-04-03T14:57:44;76.30;;;8.25;;
18752;SDS011;9505;50.882;5.350;2023-04-03T15:00:12;35.92;;;4.13;;
18752;SDS011;9505;50.882;5.350;2023-04-03T15:02:40;33.70;;;4.10;;
18752;SDS011;9505;50.882;5.350;2023-04-03T15:05:08;23.50;;;3.13;;
18752;SDS011;9505;50.882;5.350;2023-04-03T15:07:36;42.83;;;4.97;;
18752;SDS011;9505;50.882;5.350;2023-04-03T15:10:23;44.72;;;5.05;;
18752;SDS011;9505;50.882;5.350;2023-04-03T15:12:50;33.00;;;4.00;;
18752;SDS011;9505;50.882;5.350;2023-04-03T15:15:18;17.05;;;2.45;;
18752;SDS011;9505;50.882;5.350;2023-04-03T15:17:45;59.85;;;6.43;;
18752;SDS011;9505;50.882;5.350;2023-04-03T15:20:17;46.47;;;4.80;;
18752;SDS011;9505;50.882;5.350;2023-04-03T15:22:44;61.47;;;6.70;;
18752;SDS011;9505;50.882;5.350;2023-04-03T15:25:10;19.42;;;2.47;;
18752;SDS011;9505;50.882;5.350;2023-04-03T15:27:36;24.98;;;3.15;;
18752;SDS011;9505;50.882;5.350;2023-04-03T15:30:03;27.92;;;3.85;;
18752;SDS011;9505;50.882;5.350;2023-04-03T15:32:30;63.42;;;6.57;;
18752;SDS011;9505;50.882;5.350;2023-04-03T15:34:56;37.13;;;4.18;;
18752;SDS011;9505;50.882;5.350;2023-04-03T15:37:22;24.90;;;2.80;;
18752;SDS011;9505;50.882;5.350;2023-04-03T15:39:48;37.05;;;4.05;;
18752;SDS011;9505;50.882;5.350;2023-04-03T15:42:13;47.53;;;5.20;;
18752;SDS011;9505;50.882;5.350;2023-04-03T15:44:39;35.33;;;4.03;;
18752;SDS011;9505;50.882;5.350;2023-04-03T15:47:05;16.67;;;2.30;;
18752;SDS011;9505;50.882;5.350;2023-04-03T15:49:32;30.30;;;3.40;;
18752;SDS011;9505;50.882;5.350;2023-04-03T15:51:58;47.50;;;5.30;;
18752;SDS011;9505;50.882;5.350;2023-04-03T15:54:24;61.63;;;6.38;;
18752;SDS011;9505;50.882;5.350;2023-04-03T15:56:50;30.02;;;3.42;;
18752;SDS011;9505;50.882;5.350;2023-04-03T15:59:17;11.75;;;2.03;;
18752;SDS011;9505;50.882;5.350;2023-04-03T16:01:42;52.35;;;5.75;;
18752;SDS011;9505;50.882;5.350;2023-04-03T16:04:08;62.45;;;6.35;;
18752;SDS011;9505;50.882;5.350;2023-04-03T16:06:35;31.17;;;3.70;;
18752;SDS011;9505;50.882;5.350;2023-04-03T16:09:01;15.55;;;2.28;;
18752;SDS011;9505;50.882;5.350;2023-04-03T16:11:27;63.80;;;6.47;;
18752;SDS011;9505;50.882;5.350;2023-04-03T16:13:53;68.18;;;7.25;;
18752;SDS011;9505;50.882;5.350;2023-04-03T16:16:19;35.70;;;4.28;;
18752;SDS011;9505;50.882;5.350;2023-04-03T16:18:45;42.05;;;4.82;;
18752;SDS011;9505;50.882;5.350;2023-04-03T16:21:12;46.65;;;5.07;;
18752;SDS011;9505;50.882;5.350;2023-04-03T16:23:39;56.95;;;5.93;;
18752;SDS011;9505;50.882;5.350;2023-04-03T16:26:05;67.07;;;6.78;;
18752;SDS011;9505;50.882;5.350;2023-04-03T16:28:30;31.42;;;3.30;;
18752;SDS011;9505;50.882;5.350;2023-04-03T16:30:56;28.30;;;3.30;;
18752;SDS011;9505;50.882;5.350;2023-04-03T16:33:23;50.03;;;5.40;;
18752;SDS011;9505;50.882;5.350;2023-04-03T16:35:49;66.75;;;6.65;;
18752;SDS011;9505;50.882;5.350;2023-04-03T16:38:15;23.98;;;2.83;;
18752;SDS011;9505;50.882;5.350;2023-04-03T16:40:41;22.02;;;2.38;;
18752;SDS011;9505;50.882;5.350;2023-04-03T16:43:06;58.55;;;6.03;;
18752;SDS011;9505;50.882;5.350;2023-04-03T16:45:33;61.88;;;5.85;;
18752;SDS011;9505;50.882;5.350;2023-04-03T16:47:58;73.40;;;7.25;;
18752;SDS011;9505;50.882;5.350;2023-04-03T16:50:24;14.05;;;1.83;;
18752;SDS011;9505;50.882;5.350;2023-04-03T16:52:49;46.42;;;4.55;;
18752;SDS011;9505;50.882;5.350;2023-04-03T16:55:15;74.05;;;8.00;;